sensor_id;sensor_type;location;lat;lon;timestamp;P1;durP1;ratioP1;P2;durP2;ratioP2
9761;SDS011;4920;49.594;11.022;2022-12-18T00:00:26;77.17;;;35.23;;
9761;SDS011;4920;49.594;11.022;2022-12-18T00:02:56;73.50;;;35.47;;
9761;SDS011;4920;49.594;11.022;2022-12-18T00:05:25;78.67;;;35.50;;
9761;SDS011;4920;49.594;11.022;2022-12-18T00:07:54;72.07;;;33.53;;
9761;SDS011;4920;49.594;11.022;2022-12-18T00:10:23;72.03;;;35.50;;
9761;SDS011;4920;49.594;11.022;2022-12-18T00:12:52;76.63;;;34.77;;
9761;SDS011;4920;49.594;11.022;2022-12-18T00:15:20;74.43;;;33.67;;
9761;SDS011;4920;49.594;11.022;2022-12-18T00:17:49;77.80;;;33.87;;
9761;SDS011;4920;49.594;11.022;2022-12-18T00:20:19;66.77;;;31.10;;
9761;SDS011;4920;49.594;11.022;2022-12-18T00:22:52;62.73;;;30.07;;
9761;SDS011;4920;49.594;11.022;2022-12-18T00:25:22;62.33;;;30.30;;
9761;SDS011;4920;49.594;11.022;2022-12-18T00:27:51;60.23;;;29.57;;
9761;SDS011;4920;49.594;11.022;2022-12-18T00:30:20;65.00;;;30.73;;
9761;SDS011;4920;49.594;11.022;2022-12-18T00:32:48;63.53;;;29.73;;
9761;SDS011;4920;49.594;11.022;2022-12-18T00:35:17;62.10;;;28.87;;
9761;SDS011;4920;49.594;11.022;2022-12-18T00:37:47;63.77;;;29.83;;
9761;SDS011;4920;49.594;11.022;2022-12-18T00:40:16;61.43;;;30.20;;
9761;SDS011;4920;49.594;11.022;2022-12-18T00:42:45;61.77;;;30.17;;
9761;SDS011;4920;49.594;11.022;2022-12-18T00:45:26;64.03;;;31.50;;
9761;SDS011;4920;49.594;11.022;2022-12-18T00:47:56;66.73;;;30.87;;
9761;SDS011;4920;49.594;11.022;2022-12-18T00:50:27;72.00;;;32.73;;
9761;SDS011;4920;49.594;11.022;2022-12-18T00:52:55;68.90;;;31.33;;
9761;SDS011;4920;49.594;11.022;2022-12-18T00:55:24;65.73;;;31.90;;
9761;SDS011;4920;49.594;11.022;2022-12-18T00:57:53;74.17;;;33.93;;
9761;SDS011;4920;49.594;11.022;2022-12-18T01:00:22;73.43;;;34.27;;
9761;SDS011;4920;49.594;11.022;2022-12-18T01:02:51;73.00;;;33.77;;
9761;SDS011;4920;49.594;11.022;2022-12-18T01:05:20;75.53;;;34.67;;
9761;SDS011;4920;49.594;11.022;2022-12-18T01:07:51;79.37;;;35.70;;
9761;SDS011;4920;49.594;11.022;2022-12-18T01:10:20;71.17;;;33.97;;
9761;SDS011;4920;49.594;11.022;2022-12-18T01:12:50;76.50;;;35.90;;
9761;SDS011;4920;49.594;11.022;2022-12-18T01:15:19;74.23;;;33.20;;
9761;SDS011;4920;49.594;11.022;2022-12-18T01:17:48;66.93;;;31.77;;
9761;SDS011;4920;49.594;11.022;2022-12-18T01:20:16;63.90;;;31.33;;
9761;SDS011;4920;49.594;11.022;2022-12-18T01:22:45;69.80;;;29.90;;
9761;SDS011;4920;49.594;11.022;2022-12-18T01:25:16;68.73;;;30.77;;
9761;SDS011;4920;49.594;11.022;2022-12-18T01:27:44;59.43;;;29.47;;
9761;SDS011;4920;49.594;11.022;2022-12-18T01:30:13;69.70;;;30.53;;
9761;SDS011;4920;49.594;11.022;2022-12-18T01:32:42;66.83;;;30.90;;
9761;SDS011;4920;49.594;11.022;2022-12-18T01:35:11;68.90;;;30.90;;
9761;SDS011;4920;49.594;11.022;2022-12-18T01:37:40;64.70;;;30.07;;
9761;SDS011;4920;49.594;11.022;2022-12-18T01:40:09;65.53;;;30.87;;
9761;SDS011;4920;49.594;11.022;2022-12-18T01:42:39;64.87;;;29.57;;
9761;SDS011;4920;49.594;11.022;2022-12-18T01:45:22;65.33;;;29.13;;
9761;SDS011;4920;49.594;11.022;2022-12-18T01:47:53;59.53;;;29.17;;
9761;SDS011;4920;49.594;11.022;2022-12-18T01:50:24;66.87;;;28.50;;
9761;SDS011;4920;49.594;11.022;2022-12-18T01:52:58;61.57;;;27.97;;
9761;SDS011;4920;49.594;11.022;2022-12-18T01:55:31;54.47;;;26.80;;
9761;SDS011;4920;49.594;11.022;2022-12-18T01:58:05;60.87;;;26.47;;
9761;SDS011;4920;49.594;11.022;2022-12-18T02:00:34;61.07;;;27.70;;
9761;SDS011;4920;49.594;11.022;2022-12-18T02:03:03;58.30;;;26.80;;
9761;SDS011;4920;49.594;11.022;2022-12-18T02:05:36;61.20;;;27.60;;
9761;SDS011;4920;49.594;11.022;2022-12-18T02:08:14;57.00;;;27.70;;
9761;SDS011;4920;49.594;11.022;2022-12-18T02:10:51;57.23;;;26.97;;
9761;SDS011;4920;49.594;11.022;2022-12-18T02:13:28;60.80;;;27.03;;
9761;SDS011;4920;49.594;11.022;2022-12-18T02:16:06;57.03;;;25.73;;
9761;SDS011;4920;49.594;11.022;2022-12-18T02:18:43;55.37;;;25.43;;
9761;SDS011;4920;49.594;11.022;2022-12-18T02:21:21;57.03;;;25.27;;
9761;SDS011;4920;49.594;11.022;2022-12-18T02:24:01;51.37;;;24.30;;
9761;SDS011;4920;49.594;11.022;2022-12-18T02:26:47;55.43;;;23.67;;
9761;SDS011;4920;49.594;11.022;2022-12-18T02:29:22;51.47;;;23.97;;
9761;SDS011;4920;49.594;11.022;2022-12-18T02:31:56;51.83;;;24.53;;
9761;SDS011;4920;49.594;11.022;2022-12-18T02:34:30;50.67;;;24.63;;
9761;SDS011;4920;49.594;11.022;2022-12-18T02:37:03;58.20;;;26.03;;
9761;SDS011;4920;49.594;11.022;2022-12-18T02:39:36;56.37;;;25.50;;
9761;SDS011;4920;49.594;11.022;2022-12-18T02:42:10;55.10;;;25.70;;
9761;SDS011;4920;49.594;11.022;2022-12-18T02:44:43;60.90;;;27.17;;
9761;SDS011;4920;49.594;11.022;2022-12-18T02:47:16;59.50;;;26.40;;
9761;SDS011;4920;49.594;11.022;2022-12-18T02:49:51;60.23;;;26.67;;
9761;SDS011;4920;49.594;11.022;2022-12-18T02:52:32;67.70;;;32.63;;
9761;SDS011;4920;49.594;11.022;2022-12-18T02:55:09;73.90;;;33.50;;
9761;SDS011;4920;49.594;11.022;2022-12-18T02:57:55;66.23;;;30.70;;
9761;SDS011;4920;49.594;11.022;2022-12-18T03:00:32;66.70;;;29.57;;
9761;SDS011;4920;49.594;11.022;2022-12-18T03:03:06;60.27;;;29.83;;
9761;SDS011;4920;49.594;11.022;2022-12-18T03:05:40;61.73;;;27.73;;
9761;SDS011;4920;49.594;11.022;2022-12-18T03:08:14;56.97;;;27.83;;
9761;SDS011;4920;49.594;11.022;2022-12-18T03:10:48;62.17;;;28.23;;
9761;SDS011;4920;49.594;11.022;2022-12-18T03:13:25;63.20;;;27.83;;
9761;SDS011;4920;49.594;11.022;2022-12-18T03:16:01;54.77;;;26.40;;
9761;SDS011;4920;49.594;11.022;2022-12-18T03:18:34;51.07;;;25.30;;
9761;SDS011;4920;49.594;11.022;2022-12-18T03:21:06;58.63;;;27.73;;
9761;SDS011;4920;49.594;11.022;2022-12-18T03:23:39;53.97;;;26.63;;
9761;SDS011;4920;49.594;11.022;2022-12-18T03:26:12;56.50;;;26.57;;
9761;SDS011;4920;49.594;11.022;2022-12-18T03:28:45;56.63;;;25.60;;
9761;SDS011;4920;49.594;11.022;2022-12-18T03:31:18;54.03;;;25.87;;
9761;SDS011;4920;49.594;11.022;2022-12-18T03:33:51;52.77;;;25.50;;
9761;SDS011;4920;49.594;11.022;2022-12-18T03:36:32;61.03;;;26.90;;
9761;SDS011;4920;49.594;11.022;2022-12-18T03:39:01;60.33;;;27.30;;
9761;SDS011;4920;49.594;11.022;2022-12-18T03:41:34;60.90;;;27.03;;
9761;SDS011;4920;49.594;11.022;2022-12-18T03:44:32;60.23;;;25.00;;
9761;SDS011;4920;49.594;11.022;2022-12-18T03:47:07;53.60;;;24.73;;
9761;SDS011;4920;49.594;11.022;2022-12-18T03:49:47;50.10;;;23.97;;
9761;SDS011;4920;49.594;11.022;2022-12-18T03:52:26;49.10;;;24.20;;
9761;SDS011;4920;49.594;11.022;2022-12-18T03:54:58;52.73;;;24.73;;
9761;SDS011;4920;49.594;11.022;2022-12-18T03:57:30;57.90;;;24.67;;
9761;SDS011;4920;49.594;11.022;2022-12-18T04:00:05;50.10;;;24.17;;
9761;SDS011;4920;49.594;11.022;2022-12-18T04:03:08;54.97;;;25.00;;
9761;SDS011;4920;49.594;11.022;2022-12-18T04:05:43;52.83;;;24.00;;
9761;SDS011;4920;49.594;11.022;2022-12-18T04:08:15;51.47;;;23.43;;
9761;SDS011;4920;49.594;11.022;2022-12-18T04:10:52;54.60;;;23.93;;
9761;SDS011;4920;49.594;11.022;2022-12-18T04:13:21;47.20;;;22.27;;
9761;SDS011;4920;49.594;11.022;2022-12-18T04:15:52;52.23;;;22.13;;
9761;SDS011;4920;49.594;11.022;2022-12-18T04:18:22;51.13;;;22.37;;
9761;SDS011;4920;49.594;11.022;2022-12-18T04:20:51;48.23;;;23.20;;
9761;SDS011;4920;49.594;11.022;2022-12-18T04:23:21;52.40;;;23.80;;
9761;SDS011;4920;49.594;11.022;2022-12-18T04:25:52;49.03;;;22.73;;
9761;SDS011;4920;49.594;11.022;2022-12-18T04:28:35;51.03;;;23.90;;
9761;SDS011;4920;49.594;11.022;2022-12-18T04:31:05;50.80;;;23.63;;
9761;SDS011;4920;49.594;11.022;2022-12-18T04:33:34;53.33;;;22.73;;
9761;SDS011;4920;49.594;11.022;2022-12-18T04:36:04;50.50;;;23.07;;
9761;SDS011;4920;49.594;11.022;2022-12-18T04:38:34;50.83;;;23.70;;
9761;SDS011;4920;49.594;11.022;2022-12-18T04:41:07;57.23;;;23.63;;
9761;SDS011;4920;49.594;11.022;2022-12-18T04:43:36;48.87;;;23.00;;
9761;SDS011;4920;49.594;11.022;2022-12-18T04:46:07;47.63;;;23.43;;
9761;SDS011;4920;49.594;11.022;2022-12-18T04:48:36;58.43;;;24.73;;
9761;SDS011;4920;49.594;11.022;2022-12-18T04:51:05;45.80;;;22.43;;
9761;SDS011;4920;49.594;11.022;2022-12-18T04:53:34;52.03;;;23.10;;
9761;SDS011;4920;49.594;11.022;2022-12-18T04:56:05;49.77;;;23.47;;
9761;SDS011;4920;49.594;11.022;2022-12-18T04:58:34;51.03;;;24.20;;
9761;SDS011;4920;49.594;11.022;2022-12-18T05:01:03;46.33;;;23.30;;
9761;SDS011;4920;49.594;11.022;2022-12-18T05:03:34;48.63;;;23.50;;
9761;SDS011;4920;49.594;11.022;2022-12-18T05:06:04;48.80;;;23.30;;
9761;SDS011;4920;49.594;11.022;2022-12-18T05:08:34;45.60;;;22.10;;
9761;SDS011;4920;49.594;11.022;2022-12-18T05:11:04;50.63;;;23.27;;
9761;SDS011;4920;49.594;11.022;2022-12-18T05:13:34;45.40;;;21.13;;
9761;SDS011;4920;49.594;11.022;2022-12-18T05:16:05;44.73;;;21.27;;
9761;SDS011;4920;49.594;11.022;2022-12-18T05:18:36;46.53;;;20.73;;
9761;SDS011;4920;49.594;11.022;2022-12-18T05:21:05;47.90;;;20.83;;
9761;SDS011;4920;49.594;11.022;2022-12-18T05:23:34;42.43;;;19.57;;
9761;SDS011;4920;49.594;11.022;2022-12-18T05:26:04;45.13;;;20.83;;
9761;SDS011;4920;49.594;11.022;2022-12-18T05:28:35;41.50;;;19.13;;
9761;SDS011;4920;49.594;11.022;2022-12-18T05:31:04;47.57;;;20.17;;
9761;SDS011;4920;49.594;11.022;2022-12-18T05:33:34;41.80;;;19.63;;
9761;SDS011;4920;49.594;11.022;2022-12-18T05:36:06;44.33;;;20.47;;
9761;SDS011;4920;49.594;11.022;2022-12-18T05:38:36;46.47;;;20.00;;
9761;SDS011;4920;49.594;11.022;2022-12-18T05:41:07;43.80;;;19.47;;
9761;SDS011;4920;49.594;11.022;2022-12-18T05:43:37;43.73;;;19.57;;
9761;SDS011;4920;49.594;11.022;2022-12-18T05:46:08;37.90;;;18.13;;
9761;SDS011;4920;49.594;11.022;2022-12-18T05:48:41;38.57;;;18.00;;
9761;SDS011;4920;49.594;11.022;2022-12-18T05:51:11;40.87;;;18.97;;
9761;SDS011;4920;49.594;11.022;2022-12-18T05:53:44;43.03;;;17.80;;
9761;SDS011;4920;49.594;11.022;2022-12-18T05:56:13;41.23;;;18.27;;
9761;SDS011;4920;49.594;11.022;2022-12-18T05:58:43;39.43;;;18.13;;
9761;SDS011;4920;49.594;11.022;2022-12-18T06:01:13;37.17;;;18.00;;
9761;SDS011;4920;49.594;11.022;2022-12-18T06:03:45;40.07;;;19.43;;
9761;SDS011;4920;49.594;11.022;2022-12-18T06:06:14;39.60;;;18.83;;
9761;SDS011;4920;49.594;11.022;2022-12-18T06:08:44;38.20;;;18.37;;
9761;SDS011;4920;49.594;11.022;2022-12-18T06:11:15;36.97;;;18.30;;
9761;SDS011;4920;49.594;11.022;2022-12-18T06:13:46;40.53;;;18.93;;
9761;SDS011;4920;49.594;11.022;2022-12-18T06:16:24;45.57;;;19.80;;
9761;SDS011;4920;49.594;11.022;2022-12-18T06:18:55;42.90;;;19.50;;
9761;SDS011;4920;49.594;11.022;2022-12-18T06:21:25;38.27;;;18.27;;
9761;SDS011;4920;49.594;11.022;2022-12-18T06:23:54;41.17;;;18.40;;
9761;SDS011;4920;49.594;11.022;2022-12-18T06:26:23;40.83;;;19.00;;
9761;SDS011;4920;49.594;11.022;2022-12-18T06:28:54;44.27;;;19.57;;
9761;SDS011;4920;49.594;11.022;2022-12-18T06:31:24;42.10;;;18.30;;
9761;SDS011;4920;49.594;11.022;2022-12-18T06:33:54;42.20;;;18.53;;
9761;SDS011;4920;49.594;11.022;2022-12-18T06:36:23;40.53;;;18.07;;
9761;SDS011;4920;49.594;11.022;2022-12-18T06:38:52;38.57;;;19.00;;
9761;SDS011;4920;49.594;11.022;2022-12-18T06:41:21;38.20;;;19.43;;
9761;SDS011;4920;49.594;11.022;2022-12-18T06:43:50;44.53;;;19.30;;
9761;SDS011;4920;49.594;11.022;2022-12-18T06:46:25;40.93;;;18.63;;
9761;SDS011;4920;49.594;11.022;2022-12-18T06:48:55;42.23;;;20.00;;
9761;SDS011;4920;49.594;11.022;2022-12-18T06:51:24;42.73;;;19.03;;
9761;SDS011;4920;49.594;11.022;2022-12-18T06:53:53;41.10;;;19.10;;
9761;SDS011;4920;49.594;11.022;2022-12-18T06:56:21;38.83;;;18.93;;
9761;SDS011;4920;49.594;11.022;2022-12-18T06:58:50;39.93;;;19.07;;
9761;SDS011;4920;49.594;11.022;2022-12-18T07:01:19;41.87;;;18.33;;
9761;SDS011;4920;49.594;11.022;2022-12-18T07:03:51;41.63;;;18.80;;
9761;SDS011;4920;49.594;11.022;2022-12-18T07:06:23;42.50;;;18.80;;
9761;SDS011;4920;49.594;11.022;2022-12-18T07:08:53;43.90;;;19.33;;
9761;SDS011;4920;49.594;11.022;2022-12-18T07:11:22;38.77;;;18.10;;
9761;SDS011;4920;49.594;11.022;2022-12-18T07:13:52;38.27;;;17.83;;
9761;SDS011;4920;49.594;11.022;2022-12-18T07:16:21;40.47;;;17.97;;
9761;SDS011;4920;49.594;11.022;2022-12-18T07:18:51;37.13;;;17.17;;
9761;SDS011;4920;49.594;11.022;2022-12-18T07:21:23;37.40;;;18.03;;
9761;SDS011;4920;49.594;11.022;2022-12-18T07:23:53;45.30;;;18.60;;
9761;SDS011;4920;49.594;11.022;2022-12-18T07:26:21;42.93;;;18.03;;
9761;SDS011;4920;49.594;11.022;2022-12-18T07:28:50;40.30;;;18.17;;
9761;SDS011;4920;49.594;11.022;2022-12-18T07:31:22;37.77;;;17.33;;
9761;SDS011;4920;49.594;11.022;2022-12-18T07:33:51;38.50;;;18.37;;
9761;SDS011;4920;49.594;11.022;2022-12-18T07:36:20;40.97;;;17.40;;
9761;SDS011;4920;49.594;11.022;2022-12-18T07:38:50;39.60;;;17.27;;
9761;SDS011;4920;49.594;11.022;2022-12-18T07:41:20;43.57;;;17.80;;
9761;SDS011;4920;49.594;11.022;2022-12-18T07:43:49;42.80;;;18.17;;
9761;SDS011;4920;49.594;11.022;2022-12-18T07:46:17;40.80;;;18.60;;
9761;SDS011;4920;49.594;11.022;2022-12-18T07:48:46;38.27;;;17.70;;
9761;SDS011;4920;49.594;11.022;2022-12-18T07:51:16;41.23;;;18.30;;
9761;SDS011;4920;49.594;11.022;2022-12-18T07:53:46;42.03;;;18.50;;
9761;SDS011;4920;49.594;11.022;2022-12-18T07:56:19;44.47;;;18.23;;
9761;SDS011;4920;49.594;11.022;2022-12-18T07:58:54;42.03;;;18.40;;
9761;SDS011;4920;49.594;11.022;2022-12-18T08:01:23;37.70;;;18.20;;
9761;SDS011;4920;49.594;11.022;2022-12-18T08:03:52;42.57;;;18.40;;
9761;SDS011;4920;49.594;11.022;2022-12-18T08:06:21;46.07;;;20.37;;
9761;SDS011;4920;49.594;11.022;2022-12-18T08:08:51;39.10;;;17.70;;
9761;SDS011;4920;49.594;11.022;2022-12-18T08:11:22;38.90;;;17.83;;
9761;SDS011;4920;49.594;11.022;2022-12-18T08:13:53;39.93;;;18.67;;
9761;SDS011;4920;49.594;11.022;2022-12-18T08:16:22;41.93;;;19.30;;
9761;SDS011;4920;49.594;11.022;2022-12-18T08:18:52;44.73;;;18.70;;
9761;SDS011;4920;49.594;11.022;2022-12-18T08:21:22;40.70;;;19.07;;
9761;SDS011;4920;49.594;11.022;2022-12-18T08:23:53;40.57;;;18.40;;
9761;SDS011;4920;49.594;11.022;2022-12-18T08:26:25;43.47;;;19.33;;
9761;SDS011;4920;49.594;11.022;2022-12-18T08:28:56;39.70;;;18.30;;
9761;SDS011;4920;49.594;11.022;2022-12-18T08:31:27;40.60;;;19.27;;
9761;SDS011;4920;49.594;11.022;2022-12-18T08:33:56;40.20;;;18.67;;
9761;SDS011;4920;49.594;11.022;2022-12-18T08:36:25;39.83;;;18.70;;
9761;SDS011;4920;49.594;11.022;2022-12-18T08:38:54;38.57;;;18.83;;
9761;SDS011;4920;49.594;11.022;2022-12-18T08:41:26;39.90;;;18.53;;
9761;SDS011;4920;49.594;11.022;2022-12-18T08:43:54;36.20;;;19.30;;
9761;SDS011;4920;49.594;11.022;2022-12-18T08:46:41;36.23;;;18.80;;
9761;SDS011;4920;49.594;11.022;2022-12-18T08:49:11;35.80;;;17.93;;
9761;SDS011;4920;49.594;11.022;2022-12-18T08:51:40;37.23;;;18.90;;
9761;SDS011;4920;49.594;11.022;2022-12-18T08:54:10;40.50;;;19.43;;
9761;SDS011;4920;49.594;11.022;2022-12-18T08:56:41;37.87;;;18.03;;
9761;SDS011;4920;49.594;11.022;2022-12-18T08:59:10;39.43;;;18.20;;
9761;SDS011;4920;49.594;11.022;2022-12-18T09:01:45;41.67;;;18.83;;
9761;SDS011;4920;49.594;11.022;2022-12-18T09:04:15;39.00;;;17.47;;
9761;SDS011;4920;49.594;11.022;2022-12-18T09:06:44;36.67;;;17.10;;
9761;SDS011;4920;49.594;11.022;2022-12-18T09:09:13;38.93;;;18.07;;
9761;SDS011;4920;49.594;11.022;2022-12-18T09:11:43;35.93;;;18.30;;
9761;SDS011;4920;49.594;11.022;2022-12-18T09:14:12;35.40;;;17.50;;
9761;SDS011;4920;49.594;11.022;2022-12-18T09:16:41;34.80;;;17.47;;
9761;SDS011;4920;49.594;11.022;2022-12-18T09:19:09;36.87;;;17.97;;
9761;SDS011;4920;49.594;11.022;2022-12-18T09:21:38;38.13;;;18.33;;
9761;SDS011;4920;49.594;11.022;2022-12-18T09:24:13;41.53;;;19.30;;
9761;SDS011;4920;49.594;11.022;2022-12-18T09:26:44;42.13;;;18.63;;
9761;SDS011;4920;49.594;11.022;2022-12-18T09:29:13;31.73;;;16.00;;
9761;SDS011;4920;49.594;11.022;2022-12-18T09:31:44;34.00;;;16.27;;
9761;SDS011;4920;49.594;11.022;2022-12-18T09:34:13;35.00;;;16.90;;
9761;SDS011;4920;49.594;11.022;2022-12-18T09:36:42;34.93;;;17.20;;
9761;SDS011;4920;49.594;11.022;2022-12-18T09:39:12;31.70;;;16.60;;
9761;SDS011;4920;49.594;11.022;2022-12-18T09:41:44;35.07;;;16.47;;
9761;SDS011;4920;49.594;11.022;2022-12-18T09:44:22;33.90;;;15.63;;
9761;SDS011;4920;49.594;11.022;2022-12-18T09:47:03;34.03;;;16.30;;
9761;SDS011;4920;49.594;11.022;2022-12-18T09:49:37;35.13;;;16.63;;
9761;SDS011;4920;49.594;11.022;2022-12-18T09:52:11;34.17;;;16.20;;
9761;SDS011;4920;49.594;11.022;2022-12-18T09:54:44;30.70;;;15.83;;
9761;SDS011;4920;49.594;11.022;2022-12-18T09:57:18;31.23;;;15.20;;
9761;SDS011;4920;49.594;11.022;2022-12-18T09:59:50;31.63;;;14.97;;
9761;SDS011;4920;49.594;11.022;2022-12-18T10:02:23;32.10;;;15.00;;
9761;SDS011;4920;49.594;11.022;2022-12-18T10:04:56;31.43;;;15.20;;
9761;SDS011;4920;49.594;11.022;2022-12-18T10:07:33;31.80;;;14.67;;
9761;SDS011;4920;49.594;11.022;2022-12-18T10:10:18;29.20;;;14.00;;
9761;SDS011;4920;49.594;11.022;2022-12-18T10:12:57;31.17;;;14.50;;
9761;SDS011;4920;49.594;11.022;2022-12-18T10:15:36;32.00;;;15.20;;
9761;SDS011;4920;49.594;11.022;2022-12-18T10:18:16;30.37;;;15.20;;
9761;SDS011;4920;49.594;11.022;2022-12-18T10:20:52;33.90;;;15.17;;
9761;SDS011;4920;49.594;11.022;2022-12-18T10:23:26;31.83;;;15.07;;
9761;SDS011;4920;49.594;11.022;2022-12-18T10:25:59;32.03;;;15.07;;
9761;SDS011;4920;49.594;11.022;2022-12-18T10:28:32;32.47;;;14.83;;
9761;SDS011;4920;49.594;11.022;2022-12-18T10:31:04;30.60;;;14.73;;
9761;SDS011;4920;49.594;11.022;2022-12-18T10:33:34;32.17;;;15.00;;
9761;SDS011;4920;49.594;11.022;2022-12-18T10:36:03;33.63;;;15.00;;
9761;SDS011;4920;49.594;11.022;2022-12-18T10:38:32;30.87;;;14.87;;
9761;SDS011;4920;49.594;11.022;2022-12-18T10:41:02;30.27;;;14.90;;
9761;SDS011;4920;49.594;11.022;2022-12-18T10:43:34;33.97;;;15.47;;
9761;SDS011;4920;49.594;11.022;2022-12-18T10:46:05;32.37;;;14.20;;
9761;SDS011;4920;49.594;11.022;2022-12-18T10:48:50;32.13;;;15.00;;
9761;SDS011;4920;49.594;11.022;2022-12-18T10:51:21;33.13;;;15.53;;
9761;SDS011;4920;49.594;11.022;2022-12-18T10:53:56;29.73;;;14.27;;
9761;SDS011;4920;49.594;11.022;2022-12-18T10:56:30;32.20;;;15.17;;
9761;SDS011;4920;49.594;11.022;2022-12-18T10:59:03;32.97;;;15.07;;
9761;SDS011;4920;49.594;11.022;2022-12-18T11:01:45;32.30;;;14.63;;
9761;SDS011;4920;49.594;11.022;2022-12-18T11:04:16;29.70;;;15.10;;
9761;SDS011;4920;49.594;11.022;2022-12-18T11:06:52;30.90;;;15.27;;
9761;SDS011;4920;49.594;11.022;2022-12-18T11:09:24;30.87;;;14.70;;
9761;SDS011;4920;49.594;11.022;2022-12-18T11:11:54;29.53;;;14.50;;
9761;SDS011;4920;49.594;11.022;2022-12-18T11:14:28;25.10;;;13.43;;
9761;SDS011;4920;49.594;11.022;2022-12-18T11:16:59;25.60;;;13.90;;
9761;SDS011;4920;49.594;11.022;2022-12-18T11:19:52;29.97;;;14.27;;
9761;SDS011;4920;49.594;11.022;2022-12-18T11:22:23;25.97;;;13.30;;
9761;SDS011;4920;49.594;11.022;2022-12-18T11:24:55;29.03;;;13.80;;
9761;SDS011;4920;49.594;11.022;2022-12-18T11:27:47;25.77;;;13.30;;
9761;SDS011;4920;49.594;11.022;2022-12-18T11:30:22;25.37;;;13.20;;
9761;SDS011;4920;49.594;11.022;2022-12-18T11:32:52;25.73;;;13.30;;
9761;SDS011;4920;49.594;11.022;2022-12-18T11:35:27;27.03;;;13.20;;
9761;SDS011;4920;49.594;11.022;2022-12-18T11:38:04;24.37;;;12.93;;
9761;SDS011;4920;49.594;11.022;2022-12-18T11:40:41;27.67;;;13.80;;
9761;SDS011;4920;49.594;11.022;2022-12-18T11:43:13;27.17;;;13.60;;
9761;SDS011;4920;49.594;11.022;2022-12-18T11:45:48;28.67;;;13.97;;
9761;SDS011;4920;49.594;11.022;2022-12-18T11:48:21;26.10;;;13.40;;
9761;SDS011;4920;49.594;11.022;2022-12-18T11:50:53;26.20;;;13.10;;
9761;SDS011;4920;49.594;11.022;2022-12-18T11:53:24;27.00;;;13.23;;
9761;SDS011;4920;49.594;11.022;2022-12-18T11:56:05;25.53;;;13.43;;
9761;SDS011;4920;49.594;11.022;2022-12-18T11:58:54;23.30;;;12.90;;
9761;SDS011;4920;49.594;11.022;2022-12-18T12:01:39;26.20;;;13.77;;
9761;SDS011;4920;49.594;11.022;2022-12-18T12:04:22;24.93;;;13.27;;
9761;SDS011;4920;49.594;11.022;2022-12-18T12:07:07;25.40;;;13.17;;
9761;SDS011;4920;49.594;11.022;2022-12-18T12:09:46;24.83;;;13.23;;
9761;SDS011;4920;49.594;11.022;2022-12-18T12:12:25;23.30;;;12.63;;
9761;SDS011;4920;49.594;11.022;2022-12-18T12:15:17;26.40;;;13.10;;
9761;SDS011;4920;49.594;11.022;2022-12-18T12:17:55;25.37;;;13.23;;
9761;SDS011;4920;49.594;11.022;2022-12-18T12:20:41;26.70;;;13.43;;
9761;SDS011;4920;49.594;11.022;2022-12-18T12:23:18;25.93;;;13.17;;
9761;SDS011;4920;49.594;11.022;2022-12-18T12:26:06;28.53;;;13.77;;
9761;SDS011;4920;49.594;11.022;2022-12-18T12:28:45;25.47;;;12.87;;
9761;SDS011;4920;49.594;11.022;2022-12-18T12:31:27;27.43;;;12.93;;
9761;SDS011;4920;49.594;11.022;2022-12-18T12:34:13;26.97;;;12.90;;
9761;SDS011;4920;49.594;11.022;2022-12-18T12:36:49;26.03;;;12.90;;
9761;SDS011;4920;49.594;11.022;2022-12-18T12:39:30;24.37;;;13.57;;
9761;SDS011;4920;49.594;11.022;2022-12-18T12:42:02;25.47;;;12.97;;
9761;SDS011;4920;49.594;11.022;2022-12-18T12:44:51;25.00;;;12.95;;
9761;SDS011;4920;49.594;11.022;2022-12-18T12:47:25;25.20;;;13.60;;
9761;SDS011;4920;49.594;11.022;2022-12-18T12:50:00;29.13;;;14.23;;
9761;SDS011;4920;49.594;11.022;2022-12-18T12:52:35;28.77;;;13.70;;
9761;SDS011;4920;49.594;11.022;2022-12-18T12:55:07;27.47;;;13.73;;
9761;SDS011;4920;49.594;11.022;2022-12-18T12:57:46;27.13;;;13.33;;
9761;SDS011;4920;49.594;11.022;2022-12-18T13:00:21;29.27;;;13.90;;
9761;SDS011;4920;49.594;11.022;2022-12-18T13:02:54;25.23;;;13.67;;
9761;SDS011;4920;49.594;11.022;2022-12-18T13:05:33;24.87;;;13.20;;
9761;SDS011;4920;49.594;11.022;2022-12-18T13:08:08;22.90;;;12.73;;
9761;SDS011;4920;49.594;11.022;2022-12-18T13:10:39;26.47;;;13.77;;
9761;SDS011;4920;49.594;11.022;2022-12-18T13:13:10;25.43;;;13.53;;
9761;SDS011;4920;49.594;11.022;2022-12-18T13:15:43;21.97;;;13.17;;
9761;SDS011;4920;49.594;11.022;2022-12-18T13:18:17;27.27;;;13.40;;
9761;SDS011;4920;49.594;11.022;2022-12-18T13:20:50;24.23;;;13.03;;
9761;SDS011;4920;49.594;11.022;2022-12-18T13:23:31;25.00;;;13.53;;
9761;SDS011;4920;49.594;11.022;2022-12-18T13:28:59;22.93;;;12.60;;
9761;SDS011;4920;49.594;11.022;2022-12-18T13:34:35;24.23;;;12.67;;
9761;SDS011;4920;49.594;11.022;2022-12-18T13:43:23;24.67;;;13.10;;
9761;SDS011;4920;49.594;11.022;2022-12-18T13:46:04;22.63;;;12.37;;
9761;SDS011;4920;49.594;11.022;2022-12-18T13:48:51;24.10;;;11.67;;
9761;SDS011;4920;49.594;11.022;2022-12-18T13:51:23;27.07;;;13.10;;
9761;SDS011;4920;49.594;11.022;2022-12-18T13:53:55;25.47;;;12.90;;
9761;SDS011;4920;49.594;11.022;2022-12-18T13:56:28;24.80;;;12.67;;
9761;SDS011;4920;49.594;11.022;2022-12-18T14:01:54;23.00;;;12.23;;
9761;SDS011;4920;49.594;11.022;2022-12-18T14:04:25;23.73;;;12.20;;
9761;SDS011;4920;49.594;11.022;2022-12-18T14:06:56;25.37;;;12.97;;
9761;SDS011;4920;49.594;11.022;2022-12-18T14:09:34;23.37;;;12.63;;
9761;SDS011;4920;49.594;11.022;2022-12-18T14:12:06;24.07;;;12.30;;
9761;SDS011;4920;49.594;11.022;2022-12-18T14:14:59;23.10;;;12.30;;
9761;SDS011;4920;49.594;11.022;2022-12-18T14:17:28;24.47;;;12.57;;
9761;SDS011;4920;49.594;11.022;2022-12-18T14:20:00;26.03;;;12.37;;
9761;SDS011;4920;49.594;11.022;2022-12-18T14:22:29;20.83;;;11.90;;
9761;SDS011;4920;49.594;11.022;2022-12-18T14:25:10;25.70;;;12.40;;
9761;SDS011;4920;49.594;11.022;2022-12-18T14:27:44;25.43;;;12.67;;
9761;SDS011;4920;49.594;11.022;2022-12-18T14:30:24;25.73;;;12.77;;
9761;SDS011;4920;49.594;11.022;2022-12-18T14:35:57;23.27;;;12.30;;
9761;SDS011;4920;49.594;11.022;2022-12-18T14:38:29;23.87;;;12.13;;
9761;SDS011;4920;49.594;11.022;2022-12-18T14:41:02;24.37;;;12.53;;
9761;SDS011;4920;49.594;11.022;2022-12-18T14:43:32;24.03;;;12.53;;
9761;SDS011;4920;49.594;11.022;2022-12-18T14:46:03;25.10;;;12.80;;
9761;SDS011;4920;49.594;11.022;2022-12-18T14:48:34;23.47;;;12.60;;
9761;SDS011;4920;49.594;11.022;2022-12-18T14:51:06;25.20;;;13.53;;
9761;SDS011;4920;49.594;11.022;2022-12-18T14:53:44;25.50;;;13.37;;
9761;SDS011;4920;49.594;11.022;2022-12-18T14:56:22;28.57;;;14.33;;
9761;SDS011;4920;49.594;11.022;2022-12-18T15:01:58;32.33;;;14.73;;
9761;SDS011;4920;49.594;11.022;2022-12-18T15:04:32;26.53;;;13.67;;
9761;SDS011;4920;49.594;11.022;2022-12-18T15:07:03;29.23;;;13.43;;
9761;SDS011;4920;49.594;11.022;2022-12-18T15:09:46;30.43;;;14.53;;
9761;SDS011;4920;49.594;11.022;2022-12-18T15:12:34;28.60;;;14.17;;
9761;SDS011;4920;49.594;11.022;2022-12-18T15:15:04;27.83;;;14.13;;
9761;SDS011;4920;49.594;11.022;2022-12-18T15:17:56;29.10;;;14.83;;
9761;SDS011;4920;49.594;11.022;2022-12-18T15:20:25;32.00;;;15.60;;
9761;SDS011;4920;49.594;11.022;2022-12-18T15:22:54;32.43;;;16.47;;
9761;SDS011;4920;49.594;11.022;2022-12-18T15:25:24;30.43;;;15.20;;
9761;SDS011;4920;49.594;11.022;2022-12-18T15:28:00;32.43;;;15.97;;